createdAt,value
2023-05-05T00:00:55.035Z,147649.19
2023-05-05T00:01:57.274Z,147651.59
2023-05-05T00:02:59.569Z,147656.44
2023-05-05T00:04:01.984Z,147655.22
2023-05-05T00:05:04.505Z,147640.72
2023-05-05T00:06:08.096Z,147637.09
2023-05-05T00:07:10.270Z,147622.53
2023-05-05T00:08:12.433Z,147615.28
2023-05-05T00:09:14.659Z,147624.97
2023-05-05T00:10:16.798Z,147632.25
2023-05-05T00:11:19.078Z,147621.34
2023-05-05T00:12:21.211Z,147632.25
2023-05-05T00:13:24.165Z,147626.16
2023-05-05T00:14:26.341Z,147608.03
2023-05-05T00:15:28.554Z,147606.84
2023-05-05T00:16:30.698Z,147594.69
2023-05-05T00:17:33.027Z,147598.31
2023-05-05T00:18:35.371Z,147597.13
2023-05-05T00:19:37.618Z,147593.50
2023-05-05T00:20:39.808Z,147591.06
2023-05-05T00:21:41.961Z,147615.28
2023-05-05T00:22:44.165Z,147609.25
2023-05-05T00:23:46.346Z,147604.41
2023-05-05T00:24:48.493Z,147589.88
2023-05-05T00:25:51.064Z,147588.66
2023-05-05T00:26:53.254Z,147583.81
2023-05-05T00:27:56.210Z,147580.19
2023-05-05T00:28:58.356Z,147563.22
2023-05-05T00:30:00.594Z,147571.75
2023-05-05T00:31:02.852Z,147569.31
2023-05-05T00:32:05.097Z,147569.31
2023-05-05T00:33:07.647Z,147571.75
2023-05-05T00:34:09.846Z,147562.03
2023-05-05T00:35:11.975Z,147568.13
2023-05-05T00:36:14.795Z,147568.13
2023-05-05T00:37:17.342Z,147555.97
2023-05-05T00:38:19.766Z,147564.44
2023-05-05T00:39:21.916Z,147552.38
2023-05-05T00:40:25.119Z,147549.91
2023-05-05T00:41:27.283Z,147564.44
2023-05-05T00:42:39.696Z,147581.41
2023-05-05T00:43:41.904Z,147545.06
2023-05-05T00:44:44.942Z,147558.41
2023-05-05T00:45:48.022Z,147543.84
2023-05-05T00:46:50.405Z,147543.84
2023-05-05T00:47:56.675Z,147569.31
2023-05-05T00:48:59.793Z,147552.38
2023-05-05T00:50:09.763Z,147586.25
2023-05-05T00:51:12.897Z,147534.13
2023-05-05T00:52:15.103Z,147542.66
2023-05-05T00:53:17.292Z,147529.31
2023-05-05T00:54:19.487Z,147525.69
2023-05-05T00:55:22.061Z,147516.03
2023-05-05T00:56:27.353Z,147513.59
2023-05-05T00:57:29.851Z,147523.28
2023-05-05T00:58:32.085Z,147520.84
2023-05-05T00:59:35.076Z,147516.03
2023-05-05T01:00:37.255Z,147522.06
2023-05-05T01:01:39.717Z,147513.59
2023-05-05T01:02:42.515Z,147517.22
2023-05-05T01:03:45.080Z,147513.59
2023-05-05T01:04:47.418Z,147518.44
2023-05-05T01:06:10.128Z,147569.31
2023-05-05T01:07:36.207Z,147562.03
2023-05-05T01:09:17.157Z,147571.75
2023-05-05T01:10:51.663Z,147576.56
2023-05-05T01:12:25.114Z,147559.63
2023-05-05T01:13:36.622Z,147542.66
2023-05-05T01:14:42.031Z,147517.22
2023-05-05T01:16:01.016Z,147540.22
2023-05-05T01:17:28.869Z,147535.41
2023-05-05T01:18:54.274Z,147529.31
2023-05-05T01:20:19.361Z,147542.66
2023-05-05T01:21:28.543Z,147545.06
2023-05-05T01:22:41.522Z,147545.06
2023-05-05T01:24:14.170Z,147554.78
2023-05-05T01:25:53.655Z,147554.78
2023-05-05T01:27:44.901Z,147548.69
2023-05-05T01:29:06.920Z,147522.06
2023-05-05T01:30:36.672Z,147518.44
2023-05-05T01:31:51.637Z,147501.47
2023-05-05T01:33:00.766Z,147503.94
2023-05-05T01:34:06.528Z,147501.47
2023-05-05T01:35:37.726Z,147502.72
2023-05-05T01:36:44.392Z,147490.59
2023-05-05T01:37:59.122Z,147518.44
2023-05-05T01:39:03.223Z,147482.16
2023-05-05T01:40:10.574Z,147486.97
2023-05-05T01:41:19.913Z,147512.41
2023-05-05T01:42:25.030Z,147474.91
2023-05-05T01:43:31.586Z,147485.78
2023-05-05T01:44:37.641Z,147508.78
2023-05-05T01:45:43.664Z,147508.78
2023-05-05T01:46:48.881Z,147486.97
2023-05-05T01:47:54.554Z,147479.72
2023-05-05T01:48:58.718Z,147478.53
2023-05-05T01:50:03.886Z,147506.34
2023-05-05T01:51:07.967Z,147473.69
2023-05-05T01:52:11.042Z,147465.19
2023-05-05T01:53:16.325Z,147474.91
2023-05-05T01:54:20.050Z,147459.16
2023-05-05T01:55:25.442Z,147485.78
2023-05-05T01:56:31.542Z,147486.97
2023-05-05T01:57:34.864Z,147460.34
2023-05-05T01:58:38.089Z,147465.19
2023-05-05T01:59:40.890Z,147451.91
2023-05-05T02:00:44.559Z,147455.53
2023-05-05T02:01:49.303Z,147459.16
2023-05-05T02:02:53.007Z,147453.09
2023-05-05T02:03:57.416Z,147460.34
2023-05-05T02:05:01.146Z,147463.97
2023-05-05T02:06:05.462Z,147448.28
2023-05-05T02:07:08.823Z,147441.03
2023-05-05T02:08:12.200Z,147441.03
2023-05-05T02:09:15.626Z,147453.09
2023-05-05T02:10:18.409Z,147433.72
2023-05-05T02:11:21.767Z,147430.09
2023-05-05T02:12:23.987Z,147424.06
2023-05-05T02:13:27.937Z,147431.31
2023-05-05T02:14:31.036Z,147431.31
2023-05-05T02:15:35.757Z,147436.16
2023-05-05T02:16:41.183Z,147424.06
2023-05-05T02:17:45.110Z,147413.19
2023-05-05T02:18:48.468Z,147419.25
2023-05-05T02:19:53.050Z,147441.03
2023-05-05T02:20:55.260Z,147412.00
2023-05-05T02:21:57.793Z,147428.91
2023-05-05T02:23:00.343Z,147425.28
2023-05-05T02:24:02.792Z,147409.56
2023-05-05T02:25:05.712Z,147410.78
2023-05-05T02:26:10.074Z,147426.50
2023-05-05T02:27:16.112Z,147402.28
2023-05-05T02:28:43.616Z,147437.41
2023-05-05T02:29:51.977Z,147431.31
2023-05-05T02:30:59.655Z,147430.09
2023-05-05T02:32:06.908Z,147413.19
2023-05-05T02:33:12.469Z,147399.88
2023-05-05T02:34:21.665Z,147412.00
2023-05-05T02:35:30.886Z,147405.94
2023-05-05T02:36:37.328Z,147384.16
2023-05-05T02:37:41.442Z,147379.34
2023-05-05T02:38:46.294Z,147368.41
2023-05-05T02:40:00.307Z,147385.38
2023-05-05T02:41:07.752Z,147356.34
2023-05-05T02:42:15.581Z,147355.13
2023-05-05T02:43:20.934Z,147351.50
2023-05-05T02:44:26.080Z,147352.72
2023-05-05T02:45:29.127Z,147321.28
2023-05-05T02:46:31.593Z,147329.72
2023-05-05T02:47:38.028Z,147351.50
2023-05-05T02:48:41.114Z,147317.66
2023-05-05T02:49:43.268Z,147320.06
2023-05-05T02:50:45.519Z,147322.50
2023-05-05T02:51:53.998Z,147317.66
2023-05-05T02:53:01.211Z,147305.53
2023-05-05T02:54:04.725Z,147334.56
2023-05-05T02:55:08.065Z,147326.09
2023-05-05T02:56:41.085Z,147359.97
2023-05-05T02:58:24.403Z,147344.28
2023-05-05T02:59:48.713Z,147340.66
2023-05-05T03:01:09.743Z,147339.44
2023-05-05T03:02:32.987Z,147356.34
2023-05-05T03:03:44.846Z,147332.16
2023-05-05T03:05:13.425Z,147332.16
2023-05-05T03:06:27.224Z,147320.06
2023-05-05T03:07:40.658Z,147316.44
2023-05-05T03:09:03.221Z,147311.63
2023-05-05T03:10:11.854Z,147304.31
2023-05-05T03:11:54.780Z,147309.19
2023-05-05T03:13:00.933Z,147293.47
2023-05-05T03:14:18.385Z,147276.56
2023-05-05T03:15:35.985Z,147301.91
2023-05-05T03:16:40.795Z,147262.03
2023-05-05T03:17:46.354Z,147280.19
2023-05-05T03:18:51.126Z,147268.06
2023-05-05T03:19:53.934Z,147247.53
2023-05-05T03:20:56.485Z,147249.94
2023-05-05T03:21:59.246Z,147252.38
2023-05-05T03:23:02.179Z,147245.13
2023-05-05T03:24:14.463Z,147292.25
2023-05-05T03:25:17.957Z,147240.25
2023-05-05T03:26:20.445Z,147225.75
2023-05-05T03:27:22.873Z,147234.22
2023-05-05T03:28:25.071Z,147233.00
2023-05-05T03:29:29.483Z,147228.16
2023-05-05T03:30:32.512Z,147220.94
2023-05-05T03:31:35.511Z,147230.59
2023-05-05T03:32:37.735Z,147228.16
2023-05-05T03:33:40.013Z,147226.97
2023-05-05T03:34:42.176Z,147228.16
2023-05-05T03:35:44.431Z,147225.75
2023-05-05T03:36:48.544Z,147220.94
2023-05-05T03:37:51.747Z,147223.34
2023-05-05T03:38:54.027Z,147233.00
2023-05-05T03:39:57.220Z,147235.41
2023-05-05T03:41:05.684Z,147271.69
2023-05-05T03:42:08.463Z,147234.22
2023-05-05T03:43:11.530Z,147235.41
2023-05-05T03:44:13.741Z,147233.00
2023-05-05T03:45:16.839Z,147228.16
2023-05-05T03:46:19.214Z,147240.25
2023-05-05T03:47:24.518Z,147237.84
2023-05-05T03:48:27.346Z,147237.84
2023-05-05T03:49:29.816Z,147229.38
2023-05-05T03:50:32.782Z,147240.25
2023-05-05T03:51:34.923Z,147230.59
2023-05-05T03:52:37.472Z,147237.84
2023-05-05T03:53:39.727Z,147235.41
2023-05-05T03:54:43.073Z,147239.03
2023-05-05T03:55:45.233Z,147233.00
2023-05-05T03:56:47.400Z,147237.84
2023-05-05T03:57:49.540Z,147233.00
2023-05-05T03:58:51.752Z,147236.63
2023-05-05T03:59:54.172Z,147233.00
2023-05-05T04:00:56.515Z,147233.00
2023-05-05T04:01:58.733Z,147246.31
2023-05-05T04:03:01.613Z,147247.53
2023-05-05T04:04:04.551Z,147254.78
2023-05-05T04:05:06.881Z,147252.38
2023-05-05T04:06:09.043Z,147252.38
2023-05-05T04:07:11.389Z,147254.78
2023-05-05T04:08:13.562Z,147259.59
2023-05-05T04:09:16.102Z,147271.69
2023-05-05T04:10:18.950Z,147282.59
2023-05-05T04:11:21.756Z,147310.41
2023-05-05T04:12:24.084Z,147303.13
2023-05-05T04:13:26.327Z,147298.28
2023-05-05T04:14:28.925Z,147310.41
2023-05-05T04:15:31.149Z,147329.72
2023-05-05T04:16:33.564Z,147332.16
2023-05-05T04:17:35.790Z,147334.56
2023-05-05T04:18:38.399Z,147334.56
2023-05-05T04:19:40.684Z,147341.84
2023-05-05T04:20:43.669Z,147332.16
2023-05-05T04:21:46.653Z,147327.31
2023-05-05T04:22:51.424Z,147353.94
2023-05-05T04:23:54.938Z,147359.97
2023-05-05T04:24:57.661Z,147346.69
2023-05-05T04:26:00.158Z,147359.97
2023-05-05T04:27:03.225Z,147362.38
2023-05-05T04:28:05.848Z,147370.84
2023-05-05T04:29:09.730Z,147366.00
2023-05-05T04:30:12.222Z,147350.31
2023-05-05T04:31:15.919Z,147356.34
2023-05-05T04:32:19.709Z,147358.75
2023-05-05T04:33:21.981Z,147351.50
2023-05-05T04:34:25.410Z,147347.88
2023-05-05T04:35:27.714Z,147353.94
2023-05-05T04:36:29.877Z,147350.31
2023-05-05T04:37:32.125Z,147353.94
2023-05-05T04:38:34.803Z,147341.84
2023-05-05T04:39:38.214Z,147358.75
2023-05-05T04:40:41.301Z,147335.75
2023-05-05T04:41:44.763Z,147336.97
2023-05-05T04:42:47.069Z,147363.59
2023-05-05T04:43:49.834Z,147351.50
2023-05-05T04:44:52.041Z,147346.69
2023-05-05T04:45:55.425Z,147352.72
2023-05-05T04:47:01.205Z,147326.09
2023-05-05T04:48:05.182Z,147314.03
2023-05-05T04:49:07.450Z,147310.41
2023-05-05T04:50:11.356Z,147326.09
2023-05-05T04:51:14.206Z,147308.00
2023-05-05T04:52:16.392Z,147336.97
2023-05-05T04:53:18.746Z,147326.09
2023-05-05T04:54:21.410Z,147315.25
2023-05-05T04:55:23.563Z,147312.81
2023-05-05T04:56:25.884Z,147316.44
2023-05-05T04:57:29.718Z,147356.34
2023-05-05T04:58:32.882Z,147334.56
2023-05-05T04:59:35.151Z,147324.91
2023-05-05T05:00:37.938Z,147324.91
2023-05-05T05:01:40.215Z,147339.44
2023-05-05T05:02:42.731Z,147326.09
2023-05-05T05:03:44.988Z,147320.06
2023-05-05T05:04:47.610Z,147320.06
2023-05-05T05:05:50.464Z,147344.28
2023-05-05T05:06:53.388Z,147353.94
2023-05-05T05:07:55.855Z,147356.34
2023-05-05T05:08:58.861Z,147358.75
2023-05-05T05:10:01.047Z,147350.31
2023-05-05T05:11:03.244Z,147370.84
2023-05-05T05:12:07.901Z,147376.91
2023-05-05T05:13:12.670Z,147399.88
2023-05-05T05:14:15.291Z,147401.06
2023-05-05T05:15:17.657Z,147410.78
2023-05-05T05:16:20.065Z,147445.84
2023-05-05T05:17:23.919Z,147462.78
2023-05-05T05:18:26.315Z,147467.59
2023-05-05T05:19:29.367Z,147478.53
2023-05-05T05:20:32.158Z,147509.97
2023-05-05T05:21:34.329Z,147539.03
2023-05-05T05:22:38.763Z,147547.47
2023-05-05T05:23:43.990Z,147598.31
2023-05-05T05:24:46.146Z,147609.25
2023-05-05T05:25:49.158Z,147634.69
2023-05-05T05:26:53.890Z,147675.81
2023-05-05T05:29:04.920Z,147729.06
2023-05-05T05:30:08.667Z,147726.63
2023-05-05T05:31:11.327Z,147724.22
2023-05-05T05:32:13.593Z,147726.63
2023-05-05T05:33:15.944Z,147726.63
2023-05-05T05:34:19.013Z,147714.53
2023-05-05T05:35:21.463Z,147743.59
2023-05-05T05:36:23.739Z,147704.88
2023-05-05T05:37:30.004Z,147782.34
2023-05-05T05:38:33.328Z,147789.59
2023-05-05T05:39:37.823Z,147832.00
2023-05-05T05:40:40.302Z,147828.38
2023-05-05T05:41:42.690Z,147867.13
2023-05-05T05:42:44.977Z,147884.06
2023-05-05T05:43:47.316Z,147892.53
2023-05-05T05:44:49.620Z,147895.00
2023-05-05T05:45:52.036Z,147862.28
2023-05-05T05:46:54.706Z,147845.31
2023-05-05T05:47:57.042Z,147782.34
2023-05-05T05:48:59.663Z,147816.25
2023-05-05T05:50:02.095Z,147810.19
2023-05-05T05:51:04.819Z,147817.44
2023-05-05T05:52:07.207Z,147825.91
2023-05-05T05:53:09.430Z,147795.69
2023-05-05T05:54:11.975Z,147811.41
2023-05-05T05:55:14.497Z,147827.13
2023-05-05T05:56:16.814Z,147833.22
2023-05-05T05:57:19.074Z,147835.63
2023-05-05T05:58:21.411Z,147805.38
2023-05-05T05:59:23.654Z,147821.09
2023-05-05T06:00:26.085Z,147824.72
2023-05-05T06:01:35.512Z,147813.81
2023-05-05T06:02:37.939Z,147772.66
2023-05-05T06:03:41.976Z,147796.91
2023-05-05T06:04:44.259Z,147792.00
2023-05-05T06:05:46.694Z,147765.41
2023-05-05T06:06:49.806Z,147770.25
2023-05-05T06:07:52.153Z,147756.91
2023-05-05T06:08:55.720Z,147767.84
2023-05-05T06:09:57.959Z,147777.50
2023-05-05T06:11:00.646Z,147784.75
2023-05-05T06:12:03.790Z,147809.00
2023-05-05T06:13:06.848Z,147813.81
2023-05-05T06:14:11.400Z,147822.28
2023-05-05T06:15:13.626Z,147807.78
2023-05-05T06:16:16.177Z,147777.50
2023-05-05T06:17:21.267Z,147779.94
2023-05-05T06:18:23.467Z,147775.09
2023-05-05T06:19:26.740Z,147743.59
2023-05-05T06:20:29.024Z,147733.94
2023-05-05T06:21:31.762Z,147748.44
2023-05-05T06:22:33.947Z,147753.28
2023-05-05T06:23:36.145Z,147750.88
2023-05-05T06:24:41.595Z,147752.06
2023-05-05T06:25:43.757Z,147758.13
2023-05-05T06:26:45.886Z,147746.03
2023-05-05T06:27:48.037Z,147733.94
2023-05-05T06:28:50.410Z,147729.06
2023-05-05T06:29:52.531Z,147704.88
2023-05-05T06:30:54.683Z,147690.31
2023-05-05T06:31:56.956Z,147661.25
2023-05-05T06:32:59.091Z,147652.81
2023-05-05T06:34:01.249Z,147639.50
2023-05-05T06:35:03.582Z,147632.25
2023-05-05T06:36:06.056Z,147612.88
2023-05-05T06:37:08.206Z,147594.69
2023-05-05T06:38:10.582Z,147574.16
2023-05-05T06:39:15.269Z,147553.56
2023-05-05T06:40:18.146Z,147545.06
2023-05-05T06:41:20.690Z,147508.78
2023-05-05T06:42:22.903Z,147489.41
2023-05-05T06:43:29.135Z,147462.78
2023-05-05T06:44:36.411Z,147416.81
2023-05-05T06:45:38.671Z,147403.50
2023-05-05T06:46:40.908Z,147397.44
2023-05-05T06:47:44.241Z,147351.50
2023-05-05T06:48:46.477Z,147343.06
2023-05-05T06:49:48.607Z,147315.25
2023-05-05T06:50:51.112Z,147291.03
2023-05-05T06:51:53.297Z,147278.97
2023-05-05T06:52:55.454Z,147274.13
2023-05-05T06:53:57.636Z,147254.78
2023-05-05T06:54:59.858Z,147249.94
2023-05-05T06:56:02.031Z,147225.75
2023-05-05T06:57:04.332Z,147233.00
2023-05-05T06:58:06.679Z,147230.59
2023-05-05T06:59:08.849Z,147237.84
2023-05-05T07:00:11.912Z,147253.56
2023-05-05T07:01:14.591Z,147216.09
2023-05-05T07:02:16.829Z,147229.38
2023-05-05T07:03:19.157Z,147230.59
2023-05-05T07:04:21.584Z,147213.69
2023-05-05T07:05:23.841Z,147206.41
2023-05-05T07:06:26.152Z,147208.84
2023-05-05T07:07:28.359Z,147210.06
2023-05-05T07:08:30.639Z,147205.19
2023-05-05T07:09:32.804Z,147189.50
2023-05-05T07:10:35.056Z,147208.84
2023-05-05T07:11:37.969Z,147211.28
2023-05-05T07:12:40.151Z,147208.84
2023-05-05T07:13:42.508Z,147220.94
2023-05-05T07:14:46.090Z,147230.59
2023-05-05T07:15:48.381Z,147220.94
2023-05-05T07:16:50.642Z,147240.25
2023-05-05T07:17:52.890Z,147254.78
2023-05-05T07:18:55.163Z,147265.63
2023-05-05T07:19:57.303Z,147252.38
2023-05-05T07:20:59.512Z,147243.91
2023-05-05T07:22:01.659Z,147259.59
2023-05-05T07:23:03.872Z,147276.56
2023-05-05T07:24:06.491Z,147316.44
2023-05-05T07:25:08.744Z,147378.13
2023-05-05T07:26:11.069Z,147466.41
2023-05-05T07:27:13.944Z,147554.78
2023-05-05T07:28:16.386Z,147603.22
2023-05-05T07:29:18.595Z,147632.25
2023-05-05T07:30:21.229Z,147736.34
2023-05-05T07:31:23.715Z,147813.81
2023-05-05T07:32:26.189Z,147842.91
2023-05-05T07:33:28.517Z,147898.63
2023-05-05T07:34:32.764Z,147954.34
2023-05-05T07:35:34.936Z,148012.53
2023-05-05T07:36:37.146Z,148108.25
2023-05-05T07:37:39.275Z,148031.94
2023-05-05T07:38:41.471Z,147968.94
2023-05-05T07:39:43.649Z,147863.50
2023-05-05T07:40:45.958Z,147805.38
2023-05-05T07:41:48.151Z,147835.63
2023-05-05T07:42:50.389Z,147801.75
2023-05-05T07:43:52.641Z,147742.41
2023-05-05T07:44:55.387Z,147735.16
2023-05-05T07:45:57.603Z,147697.63
2023-05-05T07:46:59.862Z,147669.78
2023-05-05T07:48:02.075Z,147656.44
2023-05-05T07:49:04.293Z,147644.34
2023-05-05T07:50:07.113Z,147629.78
2023-05-05T07:51:09.732Z,147627.38
2023-05-05T07:52:12.258Z,147571.75
2023-05-05T07:53:15.315Z,147571.75
2023-05-05T07:54:17.761Z,147549.91
2023-05-05T07:55:20.128Z,147581.41
2023-05-05T07:56:22.334Z,147610.47
2023-05-05T07:57:24.575Z,147591.06
2023-05-05T07:58:26.875Z,147597.13
2023-05-05T07:59:29.133Z,147617.72
2023-05-05T08:00:31.426Z,147620.13
2023-05-05T08:01:33.609Z,147577.78
2023-05-05T08:02:35.865Z,147591.06
2023-05-05T08:03:38.410Z,147595.91
2023-05-05T08:04:41.536Z,147637.09
2023-05-05T08:05:43.783Z,147614.09
2023-05-05T08:06:46.119Z,147571.75
2023-05-05T08:07:48.470Z,147569.31
2023-05-05T08:08:53.364Z,147569.31
2023-05-05T08:09:55.681Z,147566.88
2023-05-05T08:10:57.844Z,147566.88
2023-05-05T08:12:01.358Z,147542.66
2023-05-05T08:13:03.728Z,147548.69
2023-05-05T08:14:07.802Z,147591.06
2023-05-05T08:15:10.652Z,147587.44
2023-05-05T08:16:13.482Z,147617.72
2023-05-05T08:17:17.860Z,147586.25
2023-05-05T08:18:20.305Z,147609.25
2023-05-05T08:19:28.982Z,147611.66
2023-05-05T08:20:32.807Z,147598.31
2023-05-05T08:21:35.213Z,147608.03
2023-05-05T08:22:37.362Z,147581.41
2023-05-05T08:23:39.892Z,147562.03
2023-05-05T08:24:42.031Z,147558.41
2023-05-05T08:25:44.442Z,147571.75
2023-05-05T08:26:46.654Z,147576.56
2023-05-05T08:27:48.787Z,147580.19
2023-05-05T08:28:55.032Z,147604.41
2023-05-05T08:29:57.694Z,147579.00
2023-05-05T08:31:00.018Z,147581.41
2023-05-05T08:32:02.221Z,147534.13
2023-05-05T08:33:04.394Z,147554.78
2023-05-05T08:34:06.944Z,147566.88
2023-05-05T08:35:09.686Z,147593.50
2023-05-05T08:36:13.608Z,147610.47
2023-05-05T08:37:16.920Z,147617.72
2023-05-05T08:38:19.172Z,147637.09
2023-05-05T08:39:21.364Z,147685.50
2023-05-05T08:40:31.863Z,147702.47
2023-05-05T08:41:34.068Z,147709.72
2023-05-05T08:42:38.620Z,147704.88
2023-05-05T08:43:43.757Z,147767.84
2023-05-05T08:44:45.919Z,147758.13
2023-05-05T08:45:49.360Z,147799.31
2023-05-05T08:46:51.852Z,147779.94
2023-05-05T08:48:00.433Z,147766.63
2023-05-05T08:49:05.436Z,147804.16
2023-05-05T08:50:10.445Z,147817.44
2023-05-05T08:51:19.798Z,147819.88
2023-05-05T08:52:24.163Z,147776.31
2023-05-05T08:53:36.260Z,147809.00
2023-05-05T08:54:43.317Z,147834.44
2023-05-05T08:55:51.082Z,147871.97
2023-05-05T08:56:55.071Z,147876.81
2023-05-05T08:57:58.321Z,147988.28
2023-05-05T08:59:02.498Z,148058.59
2023-05-05T09:00:05.993Z,148143.41
2023-05-05T09:01:08.691Z,148208.84
2023-05-05T09:02:12.545Z,148282.84
2023-05-05T09:03:15.796Z,148310.75
2023-05-05T09:04:19.172Z,148279.22
2023-05-05T09:05:21.294Z,148305.91
2023-05-05T09:06:25.592Z,148311.97
2023-05-05T09:07:27.791Z,148468.44
2023-05-05T09:08:31.424Z,148555.81
2023-05-05T09:09:33.872Z,148504.81
2023-05-05T09:10:36.815Z,148703.91
2023-05-05T09:11:39.459Z,148753.69
2023-05-05T09:12:42.054Z,148753.69
2023-05-05T09:13:44.474Z,148956.53
2023-05-05T09:14:47.117Z,149107.25
2023-05-05T09:15:49.353Z,149175.31
2023-05-05T09:16:51.549Z,149448.91
2023-05-05T09:17:57.564Z,149723.91
2023-05-05T09:19:05.700Z,149935.81
2023-05-05T09:20:09.842Z,149929.75
2023-05-05T09:21:23.005Z,149883.44
2023-05-05T09:22:53.246Z,149732.47
2023-05-05T09:24:08.498Z,149800.69
2023-05-05T09:25:13.163Z,149611.97
2023-05-05T09:26:15.342Z,149666.75
2023-05-05T09:27:23.707Z,149687.41
2023-05-05T09:28:26.924Z,149732.47
2023-05-05T09:29:29.420Z,149644.84
2023-05-05T09:30:31.870Z,149632.69
2023-05-05T09:31:35.451Z,149649.69
2023-05-05T09:32:51.770Z,149630.25
2023-05-05T09:33:54.130Z,149605.91
2023-05-05T09:35:01.214Z,149773.84
2023-05-05T09:36:03.570Z,149760.47
2023-05-05T09:37:06.415Z,149890.78
2023-05-05T09:38:12.366Z,150060.13
2023-05-05T09:39:17.370Z,150075.94
2023-05-05T09:40:20.724Z,150039.38
2023-05-05T09:41:53.194Z,150108.81
2023-05-05T09:43:02.110Z,150034.53
2023-05-05T09:44:04.459Z,150046.69
2023-05-05T09:45:27.494Z,150051.56
2023-05-05T09:46:29.881Z,149842.06
2023-05-05T09:47:36.973Z,149900.53
2023-05-05T09:48:39.282Z,149927.31
2023-05-05T09:49:41.494Z,149803.13
2023-05-05T09:50:44.751Z,149889.53
2023-05-05T09:51:47.737Z,149754.34
2023-05-05T09:53:00.784Z,149669.19
2023-05-05T09:54:03.080Z,149771.41
2023-05-05T09:55:05.705Z,149941.91
2023-05-05T09:56:08.455Z,150012.59
2023-05-05T09:57:29.788Z,149951.63
2023-05-05T09:58:32.097Z,149900.53
2023-05-05T09:59:34.340Z,149922.41
2023-05-05T10:00:39.819Z,149995.56
2023-05-05T10:01:43.809Z,150161.22
2023-05-05T10:02:46.259Z,150248.97
2023-05-05T10:03:54.322Z,150149.00
2023-05-05T10:05:07.028Z,150116.13
2023-05-05T10:06:09.249Z,150119.81
2023-05-05T10:07:23.444Z,150088.13
2023-05-05T10:08:27.671Z,150173.41
2023-05-05T10:09:31.716Z,150206.34
2023-05-05T10:10:34.092Z,150264.84
2023-05-05T10:11:36.852Z,150255.09
2023-05-05T10:12:39.741Z,150358.72
2023-05-05T10:13:42.986Z,150386.78
2023-05-05T10:14:45.335Z,150609.94
2023-05-05T10:15:50.127Z,150685.63
2023-05-05T10:16:54.691Z,150689.28
2023-05-05T10:18:07.810Z,151024.97
2023-05-05T10:19:14.246Z,151084.78
2023-05-05T10:20:18.714Z,150987.13
2023-05-05T10:21:21.718Z,151161.75
2023-05-05T10:22:25.068Z,151072.56
2023-05-05T10:23:45.736Z,151264.38
2023-05-05T10:24:53.575Z,151231.38
2023-05-05T10:26:05.471Z,151176.44
2023-05-05T10:27:14.634Z,151181.31
2023-05-05T10:28:27.169Z,151055.50
2023-05-05T10:29:45.984Z,151029.84
2023-05-05T10:30:53.709Z,151034.72
2023-05-05T10:32:14.119Z,150866.22
2023-05-05T10:33:35.240Z,151005.41
2023-05-05T10:34:52.719Z,151119.03
2023-05-05T10:36:00.929Z,151257.06
2023-05-05T10:37:04.693Z,151371.94
2023-05-05T10:38:12.626Z,151457.47
2023-05-05T10:39:18.126Z,151552.81
2023-05-05T10:40:22.364Z,151250.97
2023-05-05T10:41:26.621Z,151122.69
2023-05-05T10:42:28.906Z,151335.22
2023-05-05T10:43:31.432Z,151257.06
2023-05-05T10:44:34.153Z,151308.41
2023-05-05T10:45:37.637Z,151615.19
2023-05-05T10:46:43.050Z,151587.06
2023-05-05T10:47:46.570Z,151505.16
2023-05-05T10:49:02.971Z,151543.03
2023-05-05T10:50:27.517Z,151238.72
2023-05-05T10:51:57.882Z,151428.16
2023-05-05T10:52:59.984Z,151554.03
2023-05-05T10:54:10.566Z,151611.53
2023-05-05T10:55:32.946Z,151565.00
2023-05-05T10:56:36.132Z,151579.75
2023-05-05T10:57:41.755Z,151521.03
2023-05-05T10:58:55.375Z,151697.09
2023-05-05T11:00:01.374Z,151545.50
2023-05-05T11:01:05.044Z,151453.81
2023-05-05T11:02:27.328Z,151840.22
2023-05-05T11:03:30.102Z,151743.63
2023-05-05T11:04:32.669Z,151731.38
2023-05-05T11:05:34.852Z,151704.47
2023-05-05T11:06:36.982Z,151535.72
2023-05-05T11:07:39.742Z,151552.81
2023-05-05T11:08:44.248Z,151792.50
2023-05-05T11:10:01.403Z,151901.44
2023-05-05T11:11:04.856Z,151523.47
2023-05-05T11:12:07.663Z,151376.81
2023-05-05T11:13:09.805Z,151506.38
2023-05-05T11:14:23.810Z,151758.28
2023-05-05T11:15:31.843Z,151867.16
2023-05-05T11:16:47.340Z,152027.44
2023-05-05T11:17:49.681Z,151917.31
2023-05-05T11:18:51.863Z,151966.28
2023-05-05T11:20:50.865Z,151703.22
2023-05-05T11:22:00.414Z,151732.63
2023-05-05T11:23:02.530Z,151758.28
2023-05-05T11:24:30.042Z,151736.28
2023-05-05T11:25:39.036Z,151889.19
2023-05-05T11:26:51.614Z,151983.38
2023-05-05T11:28:16.581Z,151819.41
2023-05-05T11:29:18.796Z,151611.53
2023-05-05T11:30:21.111Z,151821.88
2023-05-05T11:31:23.662Z,152037.25
2023-05-05T11:32:25.848Z,151961.34
2023-05-05T11:33:37.611Z,151928.31
2023-05-05T11:34:49.999Z,151951.56
2023-05-05T11:36:06.121Z,151925.88
2023-05-05T11:37:09.210Z,151951.56
2023-05-05T11:38:14.734Z,151830.41
2023-05-05T11:39:29.037Z,151896.50
2023-05-05T11:40:36.515Z,151881.84
2023-05-05T11:41:38.702Z,151721.59
2023-05-05T11:42:40.962Z,151779.06
2023-05-05T11:43:43.381Z,151599.28
2023-05-05T11:44:45.753Z,151731.38
2023-05-05T11:45:48.004Z,151880.63
2023-05-05T11:46:53.858Z,151900.22
2023-05-05T11:48:28.464Z,151998.06
2023-05-05T11:49:34.133Z,152076.41
2023-05-05T11:50:36.787Z,152130.25
2023-05-05T11:51:39.847Z,152115.56
2023-05-05T11:52:42.089Z,152081.28
2023-05-05T11:53:46.811Z,151853.66
2023-05-05T11:54:50.159Z,151960.13
2023-05-05T11:56:06.682Z,152013.97
2023-05-05T11:57:10.318Z,152031.16
2023-05-05T11:58:21.372Z,152093.50
2023-05-05T11:59:23.905Z,151961.34
2023-05-05T12:00:33.523Z,151932.03
2023-05-05T12:01:42.624Z,151885.50
2023-05-05T12:02:44.997Z,151870.84
2023-05-05T12:03:47.498Z,152012.75
2023-05-05T12:04:50.969Z,151910.00
2023-05-05T12:05:55.996Z,151858.56
2023-05-05T12:06:59.282Z,151831.69
2023-05-05T12:08:01.576Z,151583.41
2023-05-05T12:09:04.411Z,151683.66
2023-05-05T12:10:07.445Z,151816.97
2023-05-05T12:11:11.758Z,151799.88
2023-05-05T12:12:15.187Z,151697.09
2023-05-05T12:13:19.327Z,151570.00
2023-05-05T12:14:22.582Z,151480.72
2023-05-05T12:15:29.471Z,151403.69
2023-05-05T12:16:31.803Z,151561.34
2023-05-05T12:17:39.886Z,151550.38
2023-05-05T12:18:42.472Z,151513.72
2023-05-05T12:19:48.832Z,151580.97
2023-05-05T12:20:52.866Z,151457.47
2023-05-05T12:21:55.155Z,151609.09
2023-05-05T12:23:02.654Z,151557.69
2023-05-05T12:24:05.375Z,151441.63
2023-05-05T12:25:08.395Z,151455.03
2023-05-05T12:26:30.081Z,151279.06
2023-05-05T12:27:32.451Z,151363.34
2023-05-05T12:28:46.449Z,151345.03